Time;durP1;ratioP1;P1;durP2;ratioP2;P2;SDS_P1;SDS_P2;PMS_P1;PMS_P2;Temp;Humidity;BMP_temperature;BMP_pressure;BME280_temperature;BME280_humidity;BME280_pressure;Samples;Min_cycle;Max_cycle;Signal;HPM_P1;HPM_P2
2022/06/16 00:00:05;;;;;;;6.25;2.53;;;;;;;;;;6149276;23;20440;-47
2022/06/16 00:02:30;;;;;;;4.90;3.08;;;;;;;;;;6146103;23;20009;-49
2022/06/16 00:04:56;;;;;;;7.07;2.88;;;;;;;;;;6148474;23;20317;-46
2022/06/16 00:07:23;;;;;;;3.60;2.42;;;;;;;;;;6146772;23;20072;-48
2022/06/16 00:09:48;;;;;;;3.10;2.38;;;;;;;;;;6148017;23;20025;-48
2022/06/16 00:12:13;;;;;;;3.95;2.75;;;;;;;;;;6148022;23;20033;-49
2022/06/16 00:14:39;;;;;;;6.82;3.08;;;;;;;;;;6145494;23;20013;-47
2022/06/16 00:17:04;;;;;;;4.45;2.25;;;;;;;;;;6147790;23;20009;-48
2022/06/16 00:19:29;;;;;;;6.72;3.30;;;;;;;;;;6140549;23;20363;-47
2022/06/16 00:21:55;;;;;;;9.18;3.17;;;;;;;;;;6152966;23;20099;-46
2022/06/16 00:24:26;;;;;;;5.68;2.75;;;;;;;;;;6142845;23;20019;-46
2022/06/16 00:26:51;;;;;;;5.63;3.10;;;;;;;;;;6124668;23;20010;-48
2022/06/16 00:29:17;;;;;;;8.15;3.60;;;;;;;;;;6144079;23;20095;-45
2022/06/16 00:31:42;;;;;;;9.45;3.20;;;;;;;;;;6149504;23;20010;-48
2022/06/16 00:34:07;;;;;;;4.95;3.38;;;;;;;;;;6145862;23;20014;-46
2022/06/16 00:36:34;;;;;;;4.45;3.10;;;;;;;;;;6146564;23;20009;-48
2022/06/16 00:38:59;;;;;;;7.10;3.40;;;;;;;;;;6145408;23;20045;-46
2022/06/16 00:41:24;;;;;;;5.68;2.80;;;;;;;;;;6148527;23;20014;-49
2022/06/16 00:43:50;;;;;;;6.07;3.20;;;;;;;;;;6141785;23;20017;-48
2022/06/16 00:46:17;;;;;;;6.70;3.28;;;;;;;;;;6120974;23;20343;-47
2022/06/16 00:48:45;;;;;;;7.82;2.70;;;;;;;;;;6146851;23;20037;-48
2022/06/16 00:51:30;;;;;;;7.50;3.53;;;;;;;;;;6147432;23;20025;-49
2022/06/16 00:53:59;;;;;;;6.30;2.95;;;;;;;;;;6176325;23;20009;-48
2022/06/16 00:56:25;;;;;;;6.10;3.40;;;;;;;;;;6177459;23;20069;-47
2022/06/16 00:58:56;;;;;;;5.22;3.22;;;;;;;;;;6176334;23;20071;-49
2022/06/16 01:01:21;;;;;;;8.07;3.55;;;;;;;;;;6123990;23;20036;-47
2022/06/16 01:06:31;;;;;;;8.25;4.20;;;;;;;;;;6144748;23;20016;-48
2022/06/16 01:09:02;;;;;;;5.45;3.67;;;;;;;;;;6151518;23;20018;-47
2022/06/16 01:14:49;;;;;;;9.77;4.18;;;;;;;;;;6138126;23;20029;-47
2022/06/16 01:17:23;;;;;;;5.60;3.70;;;;;;;;;;6148293;23;20016;-48
2022/06/16 01:20:03;;;;;;;7.07;3.88;;;;;;;;;;6146370;23;20023;-47
2022/06/16 01:22:43;;;;;;;7.75;3.90;;;;;;;;;;6147332;23;20021;-46
2022/06/16 01:25:08;;;;;;;8.63;4.35;;;;;;;;;;6147570;23;20005;-50
2022/06/16 01:27:52;;;;;;;6.25;3.83;;;;;;;;;;6147792;23;20064;-50
2022/06/16 01:30:20;;;;;;;5.60;4.72;;;;;;;;;;6146752;23;20028;-50
2022/06/16 01:33:06;;;;;;;12.70;5.00;;;;;;;;;;6150404;23;20010;-47
2022/06/16 01:35:46;;;;;;;6.18;4.13;;;;;;;;;;6141792;23;20009;-45
2022/06/16 01:38:14;;;;;;;9.25;4.32;;;;;;;;;;6149740;23;20014;-46
2022/06/16 01:40:45;;;;;;;11.05;4.43;;;;;;;;;;6173455;23;20085;-49
2022/06/16 01:43:19;;;;;;;5.57;3.80;;;;;;;;;;6177078;23;20025;-46
2022/06/16 01:46:00;;;;;;;7.38;4.13;;;;;;;;;;6155869;23;20032;-48
2022/06/16 01:48:27;;;;;;;13.15;4.78;;;;;;;;;;6146943;23;20028;-51
2022/06/16 01:51:02;;;;;;;7.88;3.92;;;;;;;;;;6149107;23;20029;-49
2022/06/16 01:53:50;;;;;;;9.57;4.22;;;;;;;;;;6145662;23;20013;-47
2022/06/16 01:56:34;;;;;;;7.10;5.07;;;;;;;;;;6101442;23;20068;-45
2022/06/16 01:59:04;;;;;;;7.88;4.07;;;;;;;;;;6173067;23;20067;-46
2022/06/16 02:01:31;;;;;;;11.15;5.15;;;;;;;;;;6173764;23;20323;-46
2022/06/16 02:03:58;;;;;;;9.20;5.63;;;;;;;;;;6179128;23;20005;-49
2022/06/16 02:06:23;;;;;;;6.03;4.20;;;;;;;;;;6166084;23;20041;-48
2022/06/16 02:08:51;;;;;;;6.57;4.47;;;;;;;;;;6181784;23;20036;-47
2022/06/16 02:11:20;;;;;;;9.57;4.85;;;;;;;;;;6172263;23;20024;-49
2022/06/16 02:13:49;;;;;;;14.48;5.45;;;;;;;;;;6179881;23;20009;-47
2022/06/16 02:16:18;;;;;;;7.57;4.60;;;;;;;;;;6172807;23;20020;-48
2022/06/16 02:18:43;;;;;;;11.15;5.22;;;;;;;;;;6181544;23;20013;-48
2022/06/16 02:21:21;;;;;;;8.30;5.13;;;;;;;;;;6174079;23;20029;-48
2022/06/16 02:23:46;;;;;;;9.02;4.40;;;;;;;;;;6177002;23;20012;-49
2022/06/16 02:26:12;;;;;;;12.05;5.65;;;;;;;;;;6171629;23;20077;-49
2022/06/16 02:28:44;;;;;;;9.15;4.60;;;;;;;;;;6175753;23;20521;-46
2022/06/16 02:31:15;;;;;;;9.70;6.25;;;;;;;;;;6176261;23;20028;-47
2022/06/16 02:33:59;;;;;;;6.78;4.43;;;;;;;;;;6178584;23;20005;-48
2022/06/16 02:36:43;;;;;;;7.38;4.45;;;;;;;;;;6149171;23;20013;-48
2022/06/16 02:39:14;;;;;;;6.00;4.50;;;;;;;;;;6179000;23;20044;-50
2022/06/16 02:41:42;;;;;;;9.30;5.05;;;;;;;;;;6177768;23;20470;-49
2022/06/16 02:44:18;;;;;;;7.63;4.78;;;;;;;;;;6181061;23;20013;-46
2022/06/16 02:46:56;;;;;;;11.68;4.63;;;;;;;;;;6180047;23;20036;-47
2022/06/16 02:49:24;;;;;;;9.40;4.45;;;;;;;;;;6172376;23;20037;-47
2022/06/16 02:52:07;;;;;;;8.40;4.50;;;;;;;;;;6148089;23;20048;-48
2022/06/16 02:54:38;;;;;;;9.10;5.30;;;;;;;;;;6174834;23;20013;-48
2022/06/16 02:57:07;;;;;;;7.82;4.60;;;;;;;;;;6180985;23;20021;-47
2022/06/16 02:59:38;;;;;;;8.20;4.60;;;;;;;;;;6174334;23;23001;-48
2022/06/16 03:02:08;;;;;;;7.30;4.72;;;;;;;;;;6174023;23;20535;-46
2022/06/16 03:04:35;;;;;;;7.82;4.60;;;;;;;;;;6179483;23;20108;-49
2022/06/16 03:07:00;;;;;;;8.85;5.72;;;;;;;;;;6177884;23;20009;-47
2022/06/16 03:09:26;;;;;;;7.32;4.53;;;;;;;;;;6171780;23;20040;-51
2022/06/16 03:11:51;;;;;;;6.90;4.50;;;;;;;;;;6171192;23;20603;-49
2022/06/16 03:14:16;;;;;;;9.35;4.85;;;;;;;;;;6179162;23;20002;-48
2022/06/16 03:16:41;;;;;;;9.45;4.93;;;;;;;;;;6179291;23;20009;-50
2022/06/16 03:19:07;;;;;;;7.90;4.80;;;;;;;;;;6178127;23;20096;-47
2022/06/16 03:21:33;;;;;;;7.75;4.60;;;;;;;;;;6151018;23;20021;-48
2022/06/16 03:23:58;;;;;;;7.97;5.20;;;;;;;;;;6175227;23;20005;-46
2022/06/16 03:26:23;;;;;;;12.13;5.20;;;;;;;;;;6179644;23;20072;-46
2022/06/16 03:28:49;;;;;;;7.93;4.47;;;;;;;;;;6176841;23;20012;-48
2022/06/16 03:31:15;;;;;;;8.57;4.68;;;;;;;;;;6178056;23;20021;-48
2022/06/16 03:33:40;;;;;;;9.00;6.00;;;;;;;;;;6175949;23;20024;-48
2022/06/16 03:36:05;;;;;;;11.38;4.97;;;;;;;;;;6176922;23;20020;-47
2022/06/16 03:41:02;;;;;;;10.70;5.32;;;;;;;;;;6177600;23;20013;-52
2022/06/16 03:43:27;;;;;;;7.05;4.68;;;;;;;;;;6175164;23;20024;-45
2022/06/16 03:45:52;;;;;;;4.80;4.25;;;;;;;;;;6177982;23;20060;-49
2022/06/16 03:48:18;;;;;;;8.52;4.95;;;;;;;;;;6178637;23;20017;-46
2022/06/16 03:50:43;;;;;;;7.65;5.30;;;;;;;;;;6177632;23;20029;-48
2022/06/16 03:53:09;;;;;;;7.07;4.93;;;;;;;;;;6178673;23;20005;-51
2022/06/16 03:55:34;;;;;;;10.02;5.38;;;;;;;;;;6174484;23;20029;-47
2022/06/16 03:57:59;;;;;;;10.85;5.40;;;;;;;;;;6179981;23;20013;-47
2022/06/16 04:00:25;;;;;;;8.90;5.57;;;;;;;;;;6121083;23;20645;-45
2022/06/16 04:05:35;;;;;;;15.20;5.70;;;;;;;;;;6142282;23;20060;-46
2022/06/16 04:08:00;;;;;;;10.88;5.80;;;;;;;;;;6124954;23;20590;-47
2022/06/16 04:10:26;;;;;;;8.85;5.35;;;;;;;;;;6147458;23;20026;-48
2022/06/16 04:12:51;;;;;;;12.02;6.05;;;;;;;;;;6150779;23;20006;-48
2022/06/16 04:15:16;;;;;;;12.43;7.65;;;;;;;;;;6145782;23;20014;-49
2022/06/16 04:17:42;;;;;;;10.90;6.25;;;;;;;;;;6149592;23;20495;-49
2022/06/16 04:20:13;;;;;;;10.77;6.38;;;;;;;;;;6145511;23;20016;-49
2022/06/16 04:22:39;;;;;;;7.07;5.25;;;;;;;;;;6180300;23;20311;-46
2022/06/16 04:25:05;;;;;;;13.13;6.22;;;;;;;;;;6177062;23;20079;-51
2022/06/16 04:27:31;;;;;;;9.75;5.70;;;;;;;;;;6177381;23;20079;-48
2022/06/16 04:29:56;;;;;;;11.07;5.93;;;;;;;;;;6177315;23;20017;-47
2022/06/16 04:32:21;;;;;;;11.00;6.60;;;;;;;;;;6172553;23;20013;-48
2022/06/16 04:34:48;;;;;;;13.15;6.63;;;;;;;;;;6177968;23;20017;-47
2022/06/16 04:37:13;;;;;;;10.27;6.28;;;;;;;;;;6175149;23;20036;-49
2022/06/16 04:39:39;;;;;;;15.93;7.93;;;;;;;;;;6178102;23;20049;-50
2022/06/16 04:42:04;;;;;;;14.50;7.88;;;;;;;;;;6177526;23;20094;-47
2022/06/16 04:44:31;;;;;;;10.95;7.90;;;;;;;;;;6173928;23;20397;-47
2022/06/16 04:46:56;;;;;;;10.88;6.63;;;;;;;;;;6179655;23;20040;-50
2022/06/16 04:49:22;;;;;;;12.13;7.75;;;;;;;;;;6172622;23;20013;-51
2022/06/16 04:51:47;;;;;;;13.95;8.18;;;;;;;;;;6172864;23;20092;-51
2022/06/16 04:54:12;;;;;;;12.93;7.80;;;;;;;;;;6177808;23;20032;-55
2022/06/16 04:56:37;;;;;;;13.48;7.40;;;;;;;;;;6177736;23;20020;-50
2022/06/16 04:59:03;;;;;;;16.02;7.65;;;;;;;;;;6178369;23;20013;-49
2022/06/16 05:01:28;;;;;;;10.88;7.22;;;;;;;;;;6176420;23;20408;-51
2022/06/16 05:03:53;;;;;;;16.58;7.47;;;;;;;;;;6151355;23;20035;-49
2022/06/16 05:06:19;;;;;;;13.15;7.05;;;;;;;;;;6175177;23;20017;-49
2022/06/16 05:08:44;;;;;;;14.55;6.65;;;;;;;;;;6176391;23;20017;-52
2022/06/16 05:11:09;;;;;;;14.07;7.47;;;;;;;;;;6180117;23;20069;-51
2022/06/16 05:13:35;;;;;;;11.10;7.07;;;;;;;;;;6171197;23;20014;-47
2022/06/16 05:16:01;;;;;;;12.80;6.32;;;;;;;;;;6169367;23;20089;-52
2022/06/16 05:18:26;;;;;;;11.27;6.68;;;;;;;;;;6177531;23;20019;-48
2022/06/16 05:20:51;;;;;;;11.93;6.55;;;;;;;;;;6176709;23;20431;-48
2022/06/16 05:23:17;;;;;;;12.15;6.68;;;;;;;;;;6179363;23;20028;-48
2022/06/16 05:25:42;;;;;;;15.90;7.40;;;;;;;;;;6174891;23;20017;-48
2022/06/16 05:28:09;;;;;;;10.38;7.00;;;;;;;;;;6174173;23;20537;-51
2022/06/16 05:30:34;;;;;;;16.85;7.68;;;;;;;;;;6178714;23;20017;-49
2022/06/16 05:32:59;;;;;;;15.68;7.53;;;;;;;;;;6175055;23;20441;-52
2022/06/16 05:35:25;;;;;;;15.05;6.95;;;;;;;;;;6178990;23;20017;-49
2022/06/16 05:37:50;;;;;;;11.65;7.20;;;;;;;;;;6173935;23;20009;-49
2022/06/16 05:40:15;;;;;;;17.30;8.02;;;;;;;;;;6176717;23;20017;-48
2022/06/16 05:42:41;;;;;;;13.82;7.70;;;;;;;;;;6175284;23;20195;-49
2022/06/16 05:45:07;;;;;;;13.57;7.60;;;;;;;;;;6179959;23;20005;-47
2022/06/16 05:47:35;;;;;;;14.00;8.02;;;;;;;;;;6173534;23;20021;-49
2022/06/16 05:50:00;;;;;;;12.30;7.95;;;;;;;;;;6178002;23;20055;-49
2022/06/16 05:52:26;;;;;;;11.60;7.72;;;;;;;;;;6171387;23;20040;-50
2022/06/16 05:54:51;;;;;;;9.95;8.15;;;;;;;;;;6175374;23;20040;-48
2022/06/16 05:57:16;;;;;;;12.60;8.20;;;;;;;;;;6174833;23;20009;-50
2022/06/16 05:59:42;;;;;;;11.38;7.28;;;;;;;;;;6177183;23;20015;-50
2022/06/16 06:02:12;;;;;;;12.73;8.10;;;;;;;;;;6178447;23;20036;-46
2022/06/16 06:04:37;;;;;;;11.60;8.57;;;;;;;;;;6178057;23;20009;-49
2022/06/16 06:07:02;;;;;;;17.88;9.45;;;;;;;;;;6175461;23;20419;-48
2022/06/16 06:17:41;;;;;;;13.70;8.35;;;;;;;;;;6179084;23;20496;-51
2022/06/16 06:20:07;;;;;;;16.77;7.68;;;;;;;;;;6173300;23;20013;-49
2022/06/16 06:22:32;;;;;;;13.02;7.75;;;;;;;;;;6176635;23;20027;-47
2022/06/16 06:24:58;;;;;;;16.50;7.97;;;;;;;;;;6174991;23;20012;-51
2022/06/16 06:27:23;;;;;;;13.95;7.82;;;;;;;;;;6177200;23;20014;-48
2022/06/16 06:29:49;;;;;;;13.20;8.40;;;;;;;;;;6176180;23;20017;-49
2022/06/16 06:32:15;;;;;;;11.60;7.97;;;;;;;;;;6119901;23;20278;-51
2022/06/16 06:34:40;;;;;;;12.05;7.97;;;;;;;;;;6142543;23;20005;-50
2022/06/16 06:37:06;;;;;;;11.50;7.15;;;;;;;;;;6145852;23;20017;-48
2022/06/16 06:39:32;;;;;;;13.35;7.38;;;;;;;;;;6139731;23;22117;-51
2022/06/16 06:41:57;;;;;;;17.05;7.65;;;;;;;;;;6148399;23;20021;-47
2022/06/16 06:44:23;;;;;;;12.75;8.30;;;;;;;;;;6145307;23;20014;-51
2022/06/16 06:46:48;;;;;;;13.57;7.72;;;;;;;;;;6121210;23;20009;-46
2022/06/16 06:49:14;;;;;;;10.50;7.05;;;;;;;;;;6145204;23;20056;-48
2022/06/16 06:51:40;;;;;;;12.38;6.75;;;;;;;;;;6148637;23;20028;-49
2022/06/16 06:54:05;;;;;;;9.77;7.15;;;;;;;;;;6147524;23;20385;-47
2022/06/16 06:56:31;;;;;;;13.65;7.88;;;;;;;;;;6118367;23;20026;-48
2022/06/16 06:58:58;;;;;;;12.43;8.05;;;;;;;;;;6120580;23;20013;-50
2022/06/16 07:01:23;;;;;;;17.67;8.80;;;;;;;;;;6147308;23;20061;-50
2022/06/16 07:03:49;;;;;;;18.40;8.77;;;;;;;;;;6120703;23;20094;-48
2022/06/16 07:06:15;;;;;;;12.90;7.75;;;;;;;;;;6146236;23;20009;-50
2022/06/16 07:08:41;;;;;;;12.18;8.10;;;;;;;;;;6141426;23;20041;-50
2022/06/16 07:11:06;;;;;;;14.05;8.27;;;;;;;;;;6150681;23;20026;-47
2022/06/16 07:13:31;;;;;;;16.15;8.50;;;;;;;;;;6143499;23;20073;-48
2022/06/16 07:15:57;;;;;;;16.25;7.95;;;;;;;;;;6148091;23;20016;-51
2022/06/16 07:18:22;;;;;;;12.50;8.05;;;;;;;;;;6140903;23;20017;-49
2022/06/16 07:20:50;;;;;;;10.38;8.35;;;;;;;;;;6139415;23;20017;-50
2022/06/16 07:23:15;;;;;;;16.35;7.82;;;;;;;;;;6148685;23;20021;-49
2022/06/16 07:25:41;;;;;;;14.43;7.93;;;;;;;;;;6144369;23;20009;-47
2022/06/16 07:28:06;;;;;;;16.35;8.43;;;;;;;;;;6151450;23;20010;-48
2022/06/16 07:30:31;;;;;;;11.00;7.72;;;;;;;;;;6141654;23;20026;-48
2022/06/16 07:32:57;;;;;;;12.85;7.35;;;;;;;;;;6140484;23;20016;-49
2022/06/16 07:35:22;;;;;;;11.35;7.07;;;;;;;;;;6147732;23;20036;-51
2022/06/16 07:37:49;;;;;;;15.80;7.72;;;;;;;;;;6146936;23;20013;-49
2022/06/16 07:40:15;;;;;;;12.95;7.72;;;;;;;;;;6148247;23;20412;-47
2022/06/16 07:42:40;;;;;;;12.48;8.30;;;;;;;;;;6150305;23;20016;-48
2022/06/16 07:45:06;;;;;;;17.00;8.63;;;;;;;;;;6147845;23;20033;-51
2022/06/16 07:47:31;;;;;;;18.73;8.02;;;;;;;;;;6146519;23;20024;-51
2022/06/16 07:49:57;;;;;;;18.83;8.80;;;;;;;;;;6143030;23;20040;-48
2022/06/16 07:52:22;;;;;;;15.75;8.68;;;;;;;;;;6148058;23;20076;-51
2022/06/16 07:54:49;;;;;;;14.55;8.32;;;;;;;;;;6147473;23;20061;-47
2022/06/16 07:57:14;;;;;;;13.68;7.28;;;;;;;;;;6108495;23;20005;-47
2022/06/16 07:59:40;;;;;;;11.98;8.10;;;;;;;;;;6146672;23;20071;-47
2022/06/16 08:02:06;;;;;;;14.82;8.13;;;;;;;;;;6143464;23;20073;-48
2022/06/16 08:04:31;;;;;;;11.15;8.63;;;;;;;;;;6120472;23;20014;-48
2022/06/16 08:07:00;;;;;;;15.32;8.80;;;;;;;;;;6143126;23;20045;-48
2022/06/16 08:09:26;;;;;;;14.23;8.43;;;;;;;;;;6143500;23;20062;-50
2022/06/16 08:12:04;;;;;;;16.65;7.85;;;;;;;;;;6117752;23;20021;-51
2022/06/16 08:14:32;;;;;;;15.48;9.23;;;;;;;;;;6144069;23;20018;-48
2022/06/16 08:16:58;;;;;;;21.50;8.30;;;;;;;;;;6141554;23;20020;-48
2022/06/16 08:19:23;;;;;;;16.23;9.13;;;;;;;;;;6143012;23;20296;-49
2022/06/16 08:21:49;;;;;;;19.60;8.10;;;;;;;;;;6139892;23;20005;-51
2022/06/16 08:24:14;;;;;;;15.38;7.90;;;;;;;;;;6143814;23;20024;-46
2022/06/16 08:26:39;;;;;;;13.32;8.88;;;;;;;;;;6146952;23;20009;-50
2022/06/16 08:29:06;;;;;;;13.93;8.73;;;;;;;;;;6143561;23;20028;-50
2022/06/16 08:31:31;;;;;;;14.48;8.13;;;;;;;;;;6146325;23;20021;-49
2022/06/16 08:33:57;;;;;;;17.08;9.18;;;;;;;;;;6146679;23;20036;-47
2022/06/16 08:36:22;;;;;;;18.58;9.32;;;;;;;;;;6144393;23;20024;-49
2022/06/16 08:38:48;;;;;;;13.18;8.65;;;;;;;;;;6147913;23;20014;-49
2022/06/16 08:41:20;;;;;;;15.25;8.60;;;;;;;;;;6138802;23;20345;-50
2022/06/16 08:43:46;;;;;;;18.42;9.00;;;;;;;;;;6149314;23;20018;-48
2022/06/16 08:46:14;;;;;;;17.45;8.18;;;;;;;;;;6141114;23;20037;-48
2022/06/16 08:48:58;;;;;;;13.48;8.00;;;;;;;;;;6147094;23;20017;-51
2022/06/16 08:51:29;;;;;;;14.43;8.43;;;;;;;;;;6142898;23;20033;-48
2022/06/16 08:54:01;;;;;;;21.05;9.57;;;;;;;;;;6148849;23;20013;-47
2022/06/16 08:56:33;;;;;;;14.68;8.55;;;;;;;;;;6144279;23;20013;-52
2022/06/16 08:59:18;;;;;;;12.68;8.18;;;;;;;;;;6147358;23;20036;-53
2022/06/16 09:01:51;;;;;;;12.07;8.38;;;;;;;;;;6176290;23;20005;-48
2022/06/16 09:04:24;;;;;;;9.85;6.85;;;;;;;;;;6177239;23;20019;-49
2022/06/16 09:06:53;;;;;;;12.98;8.15;;;;;;;;;;6179151;23;20097;-49
2022/06/16 09:12:16;;;;;;;13.07;7.82;;;;;;;;;;6172176;23;20068;-51
2022/06/16 09:15:26;;;;;;;10.65;5.22;;;;;;;;;;6177239;23;20009;-45
2022/06/16 09:17:45;;;;;;;14.23;7.28;;;;;;;;;;6161861;23;20084;-49
2022/06/16 09:20:20;;;;;;;13.32;7.78;;;;;;;;;;6147021;23;20005;-47
2022/06/16 09:22:54;;;;;;;11.13;7.97;;;;;;;;;;6168884;23;20013;-51
2022/06/16 09:25:40;;;;;;;13.95;7.05;;;;;;;;;;6173239;23;20031;-48
2022/06/16 09:28:15;;;;;;;11.23;7.18;;;;;;;;;;6103983;23;20415;-49
2022/06/16 09:30:42;;;;;;;10.15;6.65;;;;;;;;;;6147190;23;20034;-50
2022/06/16 09:33:13;;;;;;;12.60;5.57;;;;;;;;;;6148174;23;20140;-48
2022/06/16 09:35:57;;;;;;;13.18;7.40;;;;;;;;;;6148298;23;20013;-47
2022/06/16 09:38:33;;;;;;;11.38;5.18;;;;;;;;;;6142429;23;20344;-49
2022/06/16 09:40:58;;;;;;;5.75;3.90;;;;;;;;;;6119614;23;20021;-49
2022/06/16 09:43:30;;;;;;;10.82;4.63;;;;;;;;;;6144306;23;20014;-52
2022/06/16 09:46:03;;;;;;;7.82;4.55;;;;;;;;;;6149269;23;20017;-48
2022/06/16 09:48:34;;;;;;;13.98;5.63;;;;;;;;;;6144300;23;20032;-50
2022/06/16 09:51:04;;;;;;;12.35;5.25;;;;;;;;;;6146705;23;20022;-45
2022/06/16 09:53:29;;;;;;;10.10;4.40;;;;;;;;;;6146060;23;20231;-46
2022/06/16 09:56:12;;;;;;;9.48;4.72;;;;;;;;;;6147134;23;20028;-51
2022/06/16 09:58:42;;;;;;;6.85;3.58;;;;;;;;;;6178207;23;20013;-49
2022/06/16 10:01:09;;;;;;;5.57;3.83;;;;;;;;;;6174495;23;20016;-49
2022/06/16 10:03:42;;;;;;;7.38;5.40;;;;;;;;;;6175985;23;20016;-47
2022/06/16 10:06:27;;;;;;;7.53;4.57;;;;;;;;;;6176058;23;20013;-50
2022/06/16 10:09:14;;;;;;;5.40;4.15;;;;;;;;;;6170995;23;20013;-48
2022/06/16 10:11:51;;;;;;;6.45;4.53;;;;;;;;;;6178677;23;20017;-48
2022/06/16 10:14:35;;;;;;;10.82;4.80;;;;;;;;;;6172752;23;20039;-47
2022/06/16 10:17:12;;;;;;;4.13;3.72;;;;;;;;;;6143993;23;20020;-48
2022/06/16 10:19:39;;;;;;;4.38;3.58;;;;;;;;;;6174313;23;20009;-47
2022/06/16 10:22:06;;;;;;;6.43;4.80;;;;;;;;;;6174425;23;20020;-48
2022/06/16 10:24:54;;;;;;;11.82;5.18;;;;;;;;;;6174669;23;20017;-50
2022/06/16 10:27:21;;;;;;;10.18;4.40;;;;;;;;;;6173602;23;20024;-49
2022/06/16 10:29:51;;;;;;;9.38;3.70;;;;;;;;;;6172699;23;20013;-51
2022/06/16 10:32:17;;;;;;;5.65;3.88;;;;;;;;;;6177583;23;20048;-49
2022/06/16 10:34:42;;;;;;;9.40;3.90;;;;;;;;;;6174510;23;20013;-52
2022/06/16 10:37:10;;;;;;;6.90;3.42;;;;;;;;;;6176880;23;20009;-51
2022/06/16 10:39:43;;;;;;;6.25;3.30;;;;;;;;;;6171699;23;20013;-50
2022/06/16 10:42:20;;;;;;;4.43;2.90;;;;;;;;;;6177509;23;20627;-50
2022/06/16 10:44:53;;;;;;;5.65;2.63;;;;;;;;;;6170346;23;20153;-51
2022/06/16 10:47:21;;;;;;;4.43;3.35;;;;;;;;;;6173395;23;20005;-47
2022/06/16 10:49:47;;;;;;;4.53;2.78;;;;;;;;;;6130015;23;20106;-51
2022/06/16 10:52:20;;;;;;;5.72;3.95;;;;;;;;;;6144844;23;20022;-51
2022/06/16 10:54:55;;;;;;;4.03;2.90;;;;;;;;;;6147379;23;20082;-49
2022/06/16 10:57:25;;;;;;;8.50;3.33;;;;;;;;;;6143000;23;20021;-47
2022/06/16 11:00:10;;;;;;;4.18;3.35;;;;;;;;;;6150034;23;20069;-46
2022/06/16 11:02:36;;;;;;;4.53;2.25;;;;;;;;;;6145160;23;20010;-46
2022/06/16 11:05:10;;;;;;;4.38;2.47;;;;;;;;;;6144070;23;20089;-47
2022/06/16 11:07:42;;;;;;;3.33;2.25;;;;;;;;;;6148914;23;20013;-50
2022/06/16 11:10:10;;;;;;;5.32;2.97;;;;;;;;;;6148920;23;20025;-48
2022/06/16 11:12:37;;;;;;;4.78;2.60;;;;;;;;;;6146186;23;20175;-47
2022/06/16 11:15:23;;;;;;;5.70;2.88;;;;;;;;;;6152153;23;20009;-49
2022/06/16 11:17:54;;;;;;;3.25;2.50;;;;;;;;;;6178046;23;20014;-50
2022/06/16 11:20:30;;;;;;;5.97;2.80;;;;;;;;;;6178446;23;20012;-46
2022/06/16 11:22:56;;;;;;;5.10;2.78;;;;;;;;;;6155188;23;20069;-49
2022/06/16 11:25:21;;;;;;;6.95;3.33;;;;;;;;;;6174913;23;20025;-49
2022/06/16 11:27:54;;;;;;;4.75;2.53;;;;;;;;;;6176948;23;20091;-47
2022/06/16 11:30:27;;;;;;;6.45;3.08;;;;;;;;;;6174085;23;20051;-49
2022/06/16 11:32:53;;;;;;;4.63;2.45;;;;;;;;;;6182483;23;20392;-48
2022/06/16 11:35:20;;;;;;;6.30;3.58;;;;;;;;;;6171736;23;20009;-49
2022/06/16 11:37:50;;;;;;;7.80;2.72;;;;;;;;;;6180705;23;20016;-47
2022/06/16 11:40:23;;;;;;;5.75;2.70;;;;;;;;;;6176524;23;20060;-46
2022/06/16 11:42:54;;;;;;;3.63;2.33;;;;;;;;;;6180118;23;20060;-48
2022/06/16 11:45:28;;;;;;;3.58;2.47;;;;;;;;;;6177198;23;20068;-49
2022/06/16 11:48:05;;;;;;;5.63;2.45;;;;;;;;;;6150500;23;20049;-48
2022/06/16 11:50:34;;;;;;;6.35;2.33;;;;;;;;;;6171107;23;20039;-48
2022/06/16 11:53:06;;;;;;;6.25;2.83;;;;;;;;;;6174703;23;20226;-47
2022/06/16 11:55:38;;;;;;;5.68;2.70;;;;;;;;;;6173542;23;20435;-46
2022/06/16 11:58:06;;;;;;;5.70;2.08;;;;;;;;;;6165217;23;20079;-48
2022/06/16 12:00:36;;;;;;;4.00;2.20;;;;;;;;;;6174402;23;20009;-47
2022/06/16 12:03:02;;;;;;;7.25;2.55;;;;;;;;;;6173795;23;20515;-48
2022/06/16 12:05:39;;;;;;;4.00;2.50;;;;;;;;;;6146179;23;20021;-46
2022/06/16 12:08:30;;;;;;;3.33;2.03;;;;;;;;;;6175348;23;20040;-47
2022/06/16 12:11:03;;;;;;;5.97;1.75;;;;;;;;;;6089272;23;20033;-46
2022/06/16 12:13:36;;;;;;;5.13;2.20;;;;;;;;;;6141537;23;20013;-48
2022/06/16 12:16:04;;;;;;;4.88;2.05;;;;;;;;;;6141775;23;20499;-49
2022/06/16 12:18:53;;;;;;;2.60;2.30;;;;;;;;;;6144979;23;20128;-47
2022/06/16 12:21:18;;;;;;;6.63;2.28;;;;;;;;;;6147826;23;20040;-50
2022/06/16 12:23:57;;;;;;;8.93;2.10;;;;;;;;;;6150266;23;20431;-47
2022/06/16 12:26:32;;;;;;;3.05;2.20;;;;;;;;;;6146402;23;20446;-49
2022/06/16 12:29:05;;;;;;;2.50;1.83;;;;;;;;;;6149243;23;20024;-46
2022/06/16 12:31:45;;;;;;;3.92;2.30;;;;;;;;;;6149381;23;20446;-47
2022/06/16 12:34:16;;;;;;;3.30;1.73;;;;;;;;;;6144189;23;20085;-50
2022/06/16 12:36:51;;;;;;;3.00;2.20;;;;;;;;;;6149688;23;20014;-49
2022/06/16 12:39:31;;;;;;;13.48;3.03;;;;;;;;;;6145360;23;20033;-45
2022/06/16 12:42:00;;;;;;;2.47;1.48;;;;;;;;;;6147426;23;20056;-49
2022/06/16 12:44:25;;;;;;;2.75;1.83;;;;;;;;;;6145661;23;20017;-51
2022/06/16 12:47:03;;;;;;;2.08;1.45;;;;;;;;;;6149359;23;20014;-50
2022/06/16 12:49:31;;;;;;;2.83;1.97;;;;;;;;;;6147973;23;20019;-49
2022/06/16 12:52:04;;;;;;;4.85;1.48;;;;;;;;;;6144749;23;20539;-48
2022/06/16 12:54:36;;;;;;;1.95;1.63;;;;;;;;;;6147872;23;20420;-47
2022/06/16 12:57:03;;;;;;;2.00;1.67;;;;;;;;;;6143906;23;20468;-48
2022/06/16 12:59:32;;;;;;;2.92;1.52;;;;;;;;;;6145893;23;20065;-45
2022/06/16 13:01:58;;;;;;;2.58;1.55;;;;;;;;;;6147009;23;20519;-47
2022/06/16 13:04:29;;;;;;;1.95;1.00;;;;;;;;;;6148745;23;20081;-48
2022/06/16 13:06:55;;;;;;;3.03;1.35;;;;;;;;;;6149556;23;20099;-49
2022/06/16 13:09:23;;;;;;;3.33;1.63;;;;;;;;;;6143112;23;20025;-47
2022/06/16 13:11:54;;;;;;;2.45;1.10;;;;;;;;;;6146407;23;20021;-46
2022/06/16 13:14:22;;;;;;;2.08;0.95;;;;;;;;;;6147739;23;20025;-46
2022/06/16 13:16:49;;;;;;;0.80;0.80;;;;;;;;;;6143356;23;20010;-46
2022/06/16 13:19:17;;;;;;;3.40;1.00;;;;;;;;;;6146088;23;20009;-48
2022/06/16 13:21:47;;;;;;;2.08;1.40;;;;;;;;;;6142147;23;20024;-51
2022/06/16 13:24:24;;;;;;;1.73;1.10;;;;;;;;;;6148967;23;20010;-47
2022/06/16 13:26:55;;;;;;;1.48;0.93;;;;;;;;;;6148172;23;20017;-49
2022/06/16 13:29:20;;;;;;;1.65;1.33;;;;;;;;;;6145133;23;20018;-47
2022/06/16 13:31:48;;;;;;;2.97;1.27;;;;;;;;;;6144271;23;20013;-47
2022/06/16 13:34:17;;;;;;;4.20;1.73;;;;;;;;;;6145675;23;20006;-45
2022/06/16 13:36:50;;;;;;;1.40;1.23;;;;;;;;;;6146025;23;20098;-51
2022/06/16 13:39:34;;;;;;;1.15;1.05;;;;;;;;;;6145516;23;20025;-46
2022/06/16 13:42:02;;;;;;;1.65;1.15;;;;;;;;;;6147823;23;20016;-47
2022/06/16 13:44:29;;;;;;;8.02;1.45;;;;;;;;;;6144232;23;20017;-47
2022/06/16 13:46:54;;;;;;;2.00;1.10;;;;;;;;;;6146154;23;20014;-46
2022/06/16 13:49:54;;;;;;;3.30;1.00;;;;;;;;;;6125320;23;20028;-47
2022/06/16 13:52:31;;;;;;;2.53;1.00;;;;;;;;;;6069696;23;20268;-48
2022/06/16 13:55:04;;;;;;;2.42;1.05;;;;;;;;;;6084029;23;20010;-47
2022/06/16 13:57:33;;;;;;;1.63;0.77;;;;;;;;;;6073681;23;20047;-46
2022/06/16 14:00:00;;;;;;;2.22;1.15;;;;;;;;;;6087533;23;20002;-47
2022/06/16 14:02:26;;;;;;;2.80;1.17;;;;;;;;;;6087653;23;20010;-50
2022/06/16 14:05:06;;;;;;;0.75;0.68;;;;;;;;;;6088985;23;20066;-47
2022/06/16 14:07:47;;;;;;;1.50;0.80;;;;;;;;;;6086941;23;20018;-49
2022/06/16 14:10:24;;;;;;;1.58;1.00;;;;;;;;;;6087593;23;20038;-49
2022/06/16 14:12:59;;;;;;;2.13;1.13;;;;;;;;;;6084945;23;20011;-52
2022/06/16 14:15:43;;;;;;;1.35;1.10;;;;;;;;;;6083507;23;20029;-52
2022/06/16 14:18:19;;;;;;;1.88;0.98;;;;;;;;;;6086269;23;20034;-49
2022/06/16 14:20:46;;;;;;;1.52;1.02;;;;;;;;;;6086449;23;20291;-49
2022/06/16 14:23:23;;;;;;;2.40;0.85;;;;;;;;;;6088469;23;20021;-48
2022/06/16 14:25:52;;;;;;;2.40;0.80;;;;;;;;;;6086228;23;20006;-47
2022/06/16 14:28:26;;;;;;;2.55;1.23;;;;;;;;;;6089466;23;20011;-49
2022/06/16 14:31:01;;;;;;;1.75;1.15;;;;;;;;;;6088953;23;20022;-48
2022/06/16 14:33:35;;;;;;;3.10;1.25;;;;;;;;;;6087104;23;20137;-52
2022/06/16 14:36:10;;;;;;;1.15;0.73;;;;;;;;;;6094732;23;20018;-48
2022/06/16 14:38:57;;;;;;;1.67;0.75;;;;;;;;;;6086807;23;20038;-50
2022/06/16 14:41:28;;;;;;;1.02;0.88;;;;;;;;;;6086251;23;20037;-47
2022/06/16 14:44:02;;;;;;;0.80;0.80;;;;;;;;;;6093993;23;20010;-50
2022/06/16 14:46:36;;;;;;;2.33;0.90;;;;;;;;;;6071992;23;20022;-46
2022/06/16 14:49:03;;;;;;;2.53;0.70;;;;;;;;;;6085146;23;20518;-51
2022/06/16 14:51:41;;;;;;;2.38;0.70;;;;;;;;;;6121236;23;20029;-49
2022/06/16 14:54:06;;;;;;;1.95;0.60;;;;;;;;;;6152419;23;20034;-49
2022/06/16 14:56:47;;;;;;;1.60;0.63;;;;;;;;;;6146054;23;20413;-51
2022/06/16 14:59:18;;;;;;;0.82;0.60;;;;;;;;;;6143508;23;20036;-49
2022/06/16 15:01:44;;;;;;;0.88;0.80;;;;;;;;;;6117382;23;20351;-49
2022/06/16 15:04:11;;;;;;;2.35;1.00;;;;;;;;;;6148304;23;20068;-49
2022/06/16 15:06:40;;;;;;;1.70;1.10;;;;;;;;;;6149328;23;20018;-48
2022/06/16 15:09:05;;;;;;;1.95;0.80;;;;;;;;;;6146766;23;20036;-49
2022/06/16 15:11:32;;;;;;;2.40;0.90;;;;;;;;;;6150863;23;20018;-52
2022/06/16 15:14:00;;;;;;;0.70;0.70;;;;;;;;;;6149867;23;20014;-51